Time;durP1;ratioP1;P1;durP2;ratioP2;P2;SDS_P1;SDS_P2;PMS_P1;PMS_P2;Temp;Humidity;BMP_temperature;BMP_pressure;BME280_temperature;BME280_humidity;BME280_pressure;Samples;Min_cycle;Max_cycle;Signal;HPM_P1;HPM_P2
2022/04/20 04:06:34;;;;;;;;;27.50;24.50;;;;;;;;6463129;31;8984;-59
2022/04/20 04:12:39;;;;;;;;;36.75;34.00;;;;;;;;6493096;39;8929;-60
2022/04/20 04:18:43;;;;;;;;;41.75;36.00;;;;;;;;6492531;39;8887;-60
2022/04/20 11:45:06;;;;;;;;;7.33;6.33;;;;;;;;6259482;39;10000777;-47
2022/04/20 11:51:10;;;;;;;;;16.67;15.67;;;;;;;;6492398;39;8930;-48
2022/04/20 11:57:15;;;;;;;;;15.00;15.00;;;;;;;;6487949;39;9025;-51
2022/04/20 12:03:18;;;;;;;;;8.33;8.33;;;;;;;;6492475;46;8889;-52
2022/04/20 12:09:21;;;;;;;;;51.00;44.50;;;;;;;;6491226;39;9023;-54
2022/04/20 12:15:26;;;;;;;;;80.25;66.00;;;;;;;;6493837;31;8885;-53
2022/04/20 12:21:44;;;;;;;;;15.67;13.67;;;;;;;;6451231;46;9068;-60
2022/04/20 12:27:53;;;;;;;;;27.00;25.00;;;;;;;;6490419;46;8915;-62
2022/04/20 12:34:03;;;;;;;;;36.67;31.00;;;;;;;;6492409;46;9000;-63
2022/04/20 12:40:20;;;;;;;;;48.00;42.00;;;;;;;;6492920;31;8918;-64
2022/04/20 12:46:31;;;;;;;;;68.75;54.75;;;;;;;;6492303;39;8604;-63
2022/04/20 12:52:34;;;;;;;;;54.75;46.75;;;;;;;;6492343;31;9574;-62
2022/04/20 13:04:57;;;;;;;;;67.75;55.00;;;;;;;;6491302;46;8932;-62
2022/04/20 13:11:00;;;;;;;;;16.00;15.00;;;;;;;;6491623;39;8944;-61
2022/04/20 13:17:21;;;;;;;;;17.33;16.33;;;;;;;;6490740;39;8906;-60
2022/04/20 13:23:24;;;;;;;;;17.00;17.00;;;;;;;;6488270;47;9069;-61
2022/04/20 13:29:26;;;;;;;;;21.67;21.67;;;;;;;;6490763;31;8947;-61
2022/04/20 13:35:28;;;;;;;;;16.00;14.67;;;;;;;;6493056;31;8972;-60
2022/04/20 13:41:30;;;;;;;;;50.25;42.25;;;;;;;;6491243;39;8869;-62
2022/04/20 13:47:33;;;;;;;;;15.33;13.33;;;;;;;;6490953;47;9026;-60
2022/04/20 13:53:36;;;;;;;;;15.33;15.33;;;;;;;;6490744;31;9544;-62
2022/04/20 13:59:39;;;;;;;;;17.67;17.67;;;;;;;;6489589;39;9021;-60
2022/04/20 14:05:42;;;;;;;;;17.50;17.50;;;;;;;;6491377;39;9597;-61
2022/04/20 14:11:45;;;;;;;;;17.00;15.67;;;;;;;;6490474;39;8954;-61
2022/04/20 14:17:49;;;;;;;;;25.00;20.67;;;;;;;;6491228;39;8919;-62
2022/04/20 14:23:51;;;;;;;;;12.67;12.67;;;;;;;;6491575;31;9012;-59
2022/04/20 14:36:13;;;;;;;;;11.67;11.67;;;;;;;;6491734;39;8921;-61
2022/04/20 14:42:18;;;;;;;;;13.00;12.50;;;;;;;;6492494;46;8924;-62
2022/04/20 14:48:21;;;;;;;;;12.50;12.50;;;;;;;;6493257;46;8892;-62
2022/04/20 14:54:30;;;;;;;;;13.25;12.75;;;;;;;;6493570;46;8905;-60
2022/04/20 15:00:33;;;;;;;;;15.75;14.75;;;;;;;;6493705;39;8958;-60
2022/04/20 15:06:37;;;;;;;;;18.50;15.00;;;;;;;;6494458;39;9642;-60
2022/04/20 15:12:41;;;;;;;;;18.75;18.75;;;;;;;;6493771;39;8948;-61
2022/04/20 15:18:45;;;;;;;;;10.00;8.00;;;;;;;;6492991;46;8924;-60
2022/04/20 15:24:48;;;;;;;;;17.25;17.00;;;;;;;;6494183;39;8866;-60
2022/04/20 15:30:51;;;;;;;;;15.75;15.75;;;;;;;;6492224;39;8961;-60
2022/04/20 15:36:53;;;;;;;;;18.50;18.50;;;;;;;;6493240;31;8915;-64
2022/04/20 15:43:09;;;;;;;;;17.25;13.75;;;;;;;;6493486;39;8860;-65
2022/04/20 15:49:11;;;;;;;;;21.50;18.75;;;;;;;;6492811;46;8868;-63
2022/04/20 16:01:35;;;;;;;;;15.75;14.00;;;;;;;;6492757;39;9616;-62
2022/04/20 16:07:38;;;;;;;;;18.25;18.25;;;;;;;;6493428;46;8880;-62
2022/04/20 16:13:42;;;;;;;;;15.75;15.75;;;;;;;;6493317;39;8893;-63
2022/04/20 16:19:44;;;;;;;;;17.50;16.25;;;;;;;;6493749;46;8919;-62
2022/04/20 16:25:47;;;;;;;;;21.00;16.25;;;;;;;;6492851;39;9485;-64
2022/04/20 16:31:49;;;;;;;;;20.25;19.75;;;;;;;;6493732;39;8898;-63
2022/04/20 16:37:51;;;;;;;;;15.00;14.75;;;;;;;;6494018;39;9513;-63
2022/04/20 16:43:53;;;;;;;;;20.00;18.25;;;;;;;;6493468;31;8871;-63
2022/04/20 16:49:55;;;;;;;;;25.00;23.75;;;;;;;;6492827;46;8960;-63
2022/04/20 16:55:57;;;;;;;;;20.25;18.25;;;;;;;;6492763;39;9493;-63
2022/04/20 17:02:00;;;;;;;;;23.75;18.50;;;;;;;;6493253;39;8960;-63
2022/04/20 17:08:03;;;;;;;;;23.00;20.00;;;;;;;;6492645;39;8907;-63
2022/04/20 17:14:05;;;;;;;;;17.25;14.00;;;;;;;;6491759;31;9001;-62
2022/04/20 17:26:37;;;;;;;;;22.50;20.00;;;;;;;;6493245;31;9023;-63
2022/04/20 17:32:39;;;;;;;;;19.75;18.75;;;;;;;;6494126;39;8938;-64
2022/04/20 17:38:41;;;;;;;;;19.50;17.75;;;;;;;;6492052;47;8881;-63
2022/04/20 17:44:43;;;;;;;;;30.25;20.75;;;;;;;;6492346;39;8899;-63
2022/04/20 17:50:45;;;;;;;;;23.00;21.75;;;;;;;;6492738;39;8944;-62
2022/04/20 17:56:49;;;;;;;;;27.50;24.00;;;;;;;;6492350;39;9532;-62
2022/04/20 18:02:52;;;;;;;;;33.25;30.75;;;;;;;;6495559;46;8980;-63
2022/04/20 18:08:55;;;;;;;;;30.50;30.00;;;;;;;;6494425;39;8923;-62
2022/04/20 18:14:57;;;;;;;;;27.50;22.25;;;;;;;;6493096;46;8965;-62
2022/04/20 18:21:00;;;;;;;;;26.00;24.50;;;;;;;;6494498;39;8842;-63
2022/04/20 18:27:02;;;;;;;;;24.25;22.50;;;;;;;;6494295;31;8858;-63
2022/04/20 18:33:04;;;;;;;;;20.00;19.75;;;;;;;;6493577;39;8975;-63
2022/04/20 18:39:06;;;;;;;;;24.50;24.25;;;;;;;;6493419;39;8898;-64
2022/04/20 18:45:09;;;;;;;;;27.75;26.25;;;;;;;;6493218;39;8920;-63
2022/04/20 18:51:12;;;;;;;;;34.50;29.25;;;;;;;;6493167;39;9541;-63
2022/04/20 19:03:35;;;;;;;;;37.75;32.50;;;;;;;;6493049;46;9043;-64
2022/04/20 19:09:37;;;;;;;;;23.75;20.25;;;;;;;;6494479;31;8926;-64
2022/04/20 19:15:41;;;;;;;;;28.75;25.50;;;;;;;;6491716;39;8981;-64
2022/04/20 19:21:43;;;;;;;;;29.50;29.50;;;;;;;;6494464;39;8817;-63
2022/04/20 19:27:46;;;;;;;;;29.50;27.00;;;;;;;;6493522;31;8881;-61
2022/04/20 19:33:49;;;;;;;;;38.25;30.25;;;;;;;;6492542;39;8976;-63
2022/04/20 19:39:51;;;;;;;;;34.50;31.25;;;;;;;;6492460;39;8870;-62
2022/04/20 19:45:53;;;;;;;;;35.75;32.75;;;;;;;;6492159;39;9558;-64
2022/04/20 19:51:57;;;;;;;;;34.50;31.50;;;;;;;;6493205;39;9574;-63
2022/04/20 19:58:01;;;;;;;;;37.25;34.75;;;;;;;;6492540;39;8943;-63
2022/04/20 20:04:03;;;;;;;;;26.00;26.00;;;;;;;;6492362;39;9037;-62
2022/04/20 20:10:07;;;;;;;;;35.00;31.50;;;;;;;;6492162;39;9574;-63
2022/04/20 20:16:10;;;;;;;;;43.67;37.67;;;;;;;;6492822;39;8971;-66
2022/04/20 20:22:12;;;;;;;;;39.25;36.25;;;;;;;;6493306;39;9106;-61
2022/04/20 20:34:37;;;;;;;;;30.00;26.00;;;;;;;;6492386;46;8905;-63
2022/04/20 20:40:40;;;;;;;;;40.67;36.00;;;;;;;;6492567;39;8880;-65
2022/04/20 20:46:43;;;;;;;;;34.75;34.75;;;;;;;;6491610;31;9037;-62
2022/04/20 20:52:48;;;;;;;;;33.00;29.00;;;;;;;;6492781;39;9116;-63
2022/04/20 20:58:50;;;;;;;;;37.75;35.25;;;;;;;;6491467;46;8874;-62
2022/04/20 21:04:52;;;;;;;;;39.75;37.75;;;;;;;;6493534;39;8897;-62
2022/04/20 21:10:54;;;;;;;;;40.00;36.00;;;;;;;;6491745;39;8975;-64
2022/04/20 21:16:56;;;;;;;;;37.50;34.25;;;;;;;;6491609;31;8980;-63
2022/04/20 21:23:00;;;;;;;;;43.25;39.00;;;;;;;;6492639;39;8878;-62
2022/04/20 21:29:07;;;;;;;;;45.75;39.25;;;;;;;;6491855;31;8865;-64
2022/04/20 21:35:09;;;;;;;;;39.00;36.00;;;;;;;;6493956;39;8841;-65
2022/04/20 21:41:12;;;;;;;;;45.75;40.00;;;;;;;;6493610;39;8932;-63
2022/04/20 21:47:15;;;;;;;;;46.25;43.00;;;;;;;;6493091;39;8865;-62
2022/04/20 21:53:18;;;;;;;;;46.75;42.00;;;;;;;;6494193;31;8909;-62
2022/04/20 21:59:21;;;;;;;;;35.50;32.50;;;;;;;;6493226;39;8993;-62
2022/04/20 22:11:55;;;;;;;;;38.50;32.75;;;;;;;;6492944;39;8968;-63
2022/04/20 22:17:57;;;;;;;;;52.25;43.50;;;;;;;;6494043;39;9014;-63
2022/04/20 22:23:59;;;;;;;;;45.25;41.25;;;;;;;;6492693;46;8909;-63
2022/04/20 22:30:03;;;;;;;;;46.50;43.00;;;;;;;;6492177;46;8925;-63
2022/04/20 22:36:08;;;;;;;;;39.50;39.00;;;;;;;;6493923;39;8921;-62
2022/04/20 22:42:11;;;;;;;;;46.00;41.75;;;;;;;;6493065;39;8953;-63
2022/04/20 22:48:13;;;;;;;;;38.50;35.00;;;;;;;;6494541;39;8795;-63
2022/04/20 22:54:15;;;;;;;;;39.50;36.25;;;;;;;;6492912;39;8917;-63
2022/04/20 23:00:17;;;;;;;;;46.00;42.50;;;;;;;;6493166;31;8929;-62
2022/04/20 23:06:20;;;;;;;;;42.50;41.00;;;;;;;;6493586;46;8865;-63
2022/04/20 23:12:22;;;;;;;;;52.00;44.50;;;;;;;;6492831;31;8916;-62
2022/04/20 23:18:24;;;;;;;;;47.50;41.25;;;;;;;;6493810;39;9745;-64
2022/04/20 23:30:47;;;;;;;;;51.75;44.25;;;;;;;;6492834;39;8866;-63
2022/04/20 23:36:49;;;;;;;;;40.75;36.75;;;;;;;;6492686;39;8890;-64
2022/04/20 23:42:51;;;;;;;;;44.75;39.50;;;;;;;;6491953;46;8890;-63
2022/04/20 23:48:53;;;;;;;;;45.25;42.25;;;;;;;;6493365;39;8934;-63
2022/04/20 23:54:57;;;;;;;;;41.25;39.25;;;;;;;;6491868;31;8916;-63
